Time;durP1;ratioP1;P1;durP2;ratioP2;P2;SDS_P1;SDS_P2;PMS_P1;PMS_P2;Temp;Humidity;BMP_temperature;BMP_pressure;BME280_temperature;BME280_humidity;BME280_pressure;Samples;Min_cycle;Max_cycle;Signal;HPM_P1;HPM_P2
2023/06/01 00:01:21;;;;;;;4.20;3.80;;;18.50;67.10;;;;;;10450959;28;20256;-83
2023/06/01 00:06:23;;;;;;;4.03;3.73;;;18.50;67.20;;;;;;10472503;28;20664;-83
2023/06/01 00:11:26;;;;;;;5.23;4.70;;;18.40;66.30;;;;;;10410713;28;20203;-83
2023/06/01 00:16:30;;;;;;;4.57;4.27;;;18.40;66.20;;;;;;10410626;28;20226;-82
2023/06/01 00:21:35;;;;;;;4.57;4.10;;;18.40;66.50;;;;;;10449348;28;20217;-83
2023/06/01 00:26:37;;;;;;;6.53;4.60;;;18.30;66.90;;;;;;10442977;28;20214;-82
2023/06/01 00:31:40;;;;;;;4.40;4.00;;;18.30;66.80;;;;;;10448705;28;20221;-82
2023/06/01 00:36:43;;;;;;;4.10;3.70;;;18.20;66.40;;;;;;10448285;28;20222;-83
2023/06/01 00:41:45;;;;;;;5.27;4.77;;;18.20;66.40;;;;;;10410365;28;20231;-83
2023/06/01 00:46:50;;;;;;;8.80;4.20;;;18.10;67.10;;;;;;10405041;28;20317;-83
2023/06/01 00:51:52;;;;;;;4.93;4.53;;;18.00;67.00;;;;;;10381983;28;20703;-83
2023/06/01 00:56:55;;;;;;;5.53;4.67;;;18.00;67.70;;;;;;10447602;28;20220;-84
2023/06/01 01:01:58;;;;;;;4.30;4.00;;;17.90;67.90;;;;;;10402420;28;20606;-81
2023/06/01 01:07:20;;;;;;;5.10;4.67;;;18.00;68.50;;;;;;10409435;28;20245;-83
2023/06/01 01:12:40;;;;;;;4.67;4.27;;;17.90;68.20;;;;;;10368950;28;20214;-82
2023/06/01 01:17:51;;;;;;;5.07;4.57;;;17.90;68.60;;;;;;10425189;28;20713;-81
2023/06/01 01:23:11;;;;;;;5.80;4.33;;;17.80;68.00;;;;;;10373721;28;20229;-83
2023/06/01 01:28:38;;;;;;;4.60;4.30;;;17.80;67.60;;;;;;10424459;28;20226;-82
2023/06/01 01:33:42;;;;;;;5.53;4.60;;;17.70;68.10;;;;;;10440410;28;20244;-82
2023/06/01 01:38:44;;;;;;;5.10;4.70;;;17.70;68.40;;;;;;10467047;28;20748;-83
2023/06/01 01:43:49;;;;;;;5.90;5.00;;;17.60;68.40;;;;;;10378567;28;20226;-83
2023/06/01 01:49:00;;;;;;;4.30;3.90;;;17.60;69.50;;;;;;10418315;28;20223;-83
2023/06/01 01:54:06;;;;;;;6.70;4.40;;;17.50;69.10;;;;;;10424385;28;20544;-82
2023/06/01 01:59:10;;;;;;;4.70;4.30;;;17.50;69.50;;;;;;10438546;28;20225;-82
2023/06/01 02:04:15;;;;;;;4.67;4.17;;;17.50;68.50;;;;;;10445534;28;20325;-83
2023/06/01 02:09:17;;;;;;;6.27;4.37;;;17.40;69.00;;;;;;10407692;28;20622;-81
2023/06/01 02:14:20;;;;;;;5.67;4.47;;;17.30;68.80;;;;;;10421480;28;20229;-82
2023/06/01 02:19:23;;;;;;;5.77;4.27;;;17.30;68.90;;;;;;10447173;28;20861;-81
2023/06/01 02:24:25;;;;;;;4.47;4.17;;;17.20;68.90;;;;;;10406287;28;20279;-81
2023/06/01 02:29:29;;;;;;;4.97;4.57;;;17.20;70.40;;;;;;10449179;28;20218;-83
2023/06/01 02:34:31;;;;;;;4.70;4.27;;;17.20;70.20;;;;;;10467982;28;20694;-81
2023/06/01 02:39:33;;;;;;;4.80;4.20;;;17.20;70.00;;;;;;10424748;28;20224;-83
2023/06/01 02:44:38;;;;;;;4.37;3.97;;;17.20;70.70;;;;;;10423386;28;20301;-83
2023/06/01 02:49:41;;;;;;;6.13;4.13;;;17.10;70.10;;;;;;10443666;28;20249;-82
2023/06/01 02:54:43;;;;;;;4.40;4.10;;;17.00;69.90;;;;;;10426738;28;20591;-82
2023/06/01 03:00:15;;;;;;;4.60;4.20;;;17.00;70.70;;;;;;10460390;28;20218;-81
2023/06/01 03:05:20;;;;;;;5.97;4.57;;;16.90;71.00;;;;;;10423316;28;20583;-81
2023/06/01 03:10:29;;;;;;;9.33;4.70;;;16.90;70.30;;;;;;10436778;28;20222;-82
2023/06/01 03:15:40;;;;;;;4.27;3.97;;;16.90;71.20;;;;;;10413617;28;20203;-81
2023/06/01 03:20:42;;;;;;;5.10;4.70;;;16.90;70.90;;;;;;10418327;28;20206;-81
2023/06/01 03:25:45;;;;;;;4.63;4.10;;;16.80;71.40;;;;;;10437393;28;20252;-81
2023/06/01 03:30:49;;;;;;;5.30;4.80;;;16.80;71.10;;;;;;10417657;28;20209;-82
2023/06/01 03:35:51;;;;;;;6.73;4.40;;;16.80;70.60;;;;;;10417777;28;20202;-82
2023/06/01 03:40:53;;;;;;;4.80;3.73;;;16.70;71.00;;;;;;10438916;28;20190;-82
2023/06/01 03:45:57;;;;;;;6.13;4.77;;;16.70;71.80;;;;;;10418767;28;20268;-81
2023/06/01 03:50:59;;;;;;;4.57;4.23;;;16.70;70.60;;;;;;10410497;28;20203;-82
2023/06/01 03:56:02;;;;;;;4.20;3.90;;;16.60;71.10;;;;;;10398935;28;20210;-82
2023/06/01 04:01:16;;;;;;;5.40;4.27;;;16.60;71.70;;;;;;10396048;28;20206;-81
2023/06/01 04:06:18;;;;;;;3.70;3.40;;;16.60;72.30;;;;;;10372803;28;20285;-82
2023/06/01 04:11:23;;;;;;;5.53;5.03;;;16.60;72.50;;;;;;10401326;28;20208;-81
2023/06/01 04:16:28;;;;;;;5.03;4.53;;;16.60;73.40;;;;;;10422906;28;20214;-82
2023/06/01 04:21:32;;;;;;;5.03;4.63;;;16.60;72.40;;;;;;10436223;28;20258;-81
2023/06/01 04:26:35;;;;;;;5.30;4.80;;;16.70;73.20;;;;;;10434751;28;20230;-81
2023/06/01 04:31:39;;;;;;;5.53;5.03;;;16.70;73.70;;;;;;10431127;28;20666;-81
2023/06/01 04:36:41;;;;;;;8.20;5.43;;;16.70;73.90;;;;;;10456649;28;20213;-81
2023/06/01 04:41:44;;;;;;;8.63;5.67;;;16.80;74.30;;;;;;10430538;28;20202;-82
2023/06/01 04:46:49;;;;;;;6.00;4.83;;;16.80;74.20;;;;;;10428042;28;20225;-82
2023/06/01 04:51:51;;;;;;;7.13;4.57;;;16.80;74.40;;;;;;10438837;28;20226;-82
2023/06/01 04:56:54;;;;;;;4.90;4.50;;;16.80;75.70;;;;;;10400729;28;20289;-82
2023/06/01 05:01:58;;;;;;;5.00;4.10;;;16.90;75.20;;;;;;10411240;28;20213;-80
2023/06/01 05:07:00;;;;;;;7.37;3.87;;;16.90;76.00;;;;;;10435765;28;20581;-80
2023/06/01 05:12:02;;;;;;;4.43;4.03;;;17.00;76.20;;;;;;10424642;28;20657;-82
2023/06/01 05:17:06;;;;;;;4.10;3.70;;;17.00;76.90;;;;;;10432081;28;20214;-80
2023/06/01 05:22:09;;;;;;;5.60;4.03;;;17.10;77.20;;;;;;10419405;28;20212;-82
2023/06/01 05:27:11;;;;;;;4.00;3.70;;;17.20;77.00;;;;;;10443027;28;20218;-81
2023/06/01 05:32:14;;;;;;;4.80;3.90;;;17.30;76.80;;;;;;10412762;28;20225;-82
2023/06/01 05:37:17;;;;;;;5.17;3.87;;;17.30;76.00;;;;;;10414524;28;20226;-81
2023/06/01 05:42:19;;;;;;;4.13;3.80;;;17.40;76.20;;;;;;10436147;28;20221;-81
2023/06/01 05:47:23;;;;;;;5.87;4.43;;;17.50;76.40;;;;;;10422556;28;20265;-81
2023/06/01 05:52:26;;;;;;;6.93;3.60;;;17.60;76.30;;;;;;10433166;28;20218;-81
2023/06/01 05:57:29;;;;;;;8.30;4.33;;;17.70;76.10;;;;;;10447755;28;20222;-80
2023/06/01 06:02:32;;;;;;;4.70;3.70;;;17.80;76.10;;;;;;10414709;28;20678;-81
2023/06/01 06:07:34;;;;;;;5.83;4.57;;;17.90;75.60;;;;;;10465538;28;20215;-80
2023/06/01 06:12:36;;;;;;;6.30;3.70;;;18.00;74.80;;;;;;10437547;28;20277;-82
2023/06/01 06:17:40;;;;;;;5.10;3.80;;;18.10;75.50;;;;;;10465194;28;20686;-81
2023/06/01 06:22:42;;;;;;;5.13;3.97;;;18.20;75.20;;;;;;10429408;28;20223;-82
2023/06/01 06:27:45;;;;;;;6.10;3.43;;;18.40;75.10;;;;;;10431833;28;20233;-82
2023/06/01 06:32:49;;;;;;;5.57;4.10;;;18.60;74.90;;;;;;10435123;28;20198;-81
2023/06/01 06:37:51;;;;;;;4.97;4.20;;;18.80;72.30;;;;;;10430888;28;20294;-81
2023/06/01 06:42:53;;;;;;;4.07;3.67;;;19.10;72.30;;;;;;10446892;28;20225;-80
2023/06/01 06:47:56;;;;;;;7.70;4.37;;;19.50;72.00;;;;;;10424233;28;20249;-81
2023/06/01 06:53:00;;;;;;;6.97;3.80;;;19.80;70.80;;;;;;10427993;28;20206;-82
2023/06/01 06:58:02;;;;;;;4.63;4.23;;;20.10;69.90;;;;;;10468580;28;20742;-80
2023/06/01 07:03:06;;;;;;;4.33;3.73;;;20.50;69.50;;;;;;10437945;28;20722;-80
2023/06/01 07:08:08;;;;;;;4.33;3.93;;;20.80;68.00;;;;;;10445682;28;20296;-80
2023/06/01 07:13:10;;;;;;;5.27;3.77;;;21.10;66.80;;;;;;10413086;28;20206;-81
2023/06/01 07:18:14;;;;;;;9.00;4.63;;;21.40;66.50;;;;;;10449958;28;20321;-81
2023/06/01 07:23:16;;;;;;;5.53;4.53;;;21.70;64.80;;;;;;10425266;28;20227;-81
2023/06/01 07:28:19;;;;;;;5.33;4.20;;;22.10;63.70;;;;;;10460312;28;20276;-80
2023/06/01 07:33:23;;;;;;;5.17;4.10;;;22.50;63.50;;;;;;10464830;28;20241;-81
2023/06/01 07:38:25;;;;;;;4.53;4.13;;;22.90;62.40;;;;;;10426220;28;20589;-81
2023/06/01 07:43:28;;;;;;;12.03;4.60;;;23.40;62.60;;;;;;10436130;28;20214;-80
2023/06/01 07:48:36;;;;;;;6.00;4.47;;;23.90;61.40;;;;;;10407588;28;20697;-82
2023/06/01 07:53:39;;;;;;;7.30;4.73;;;24.50;59.60;;;;;;10451632;28;20202;-80
2023/06/01 07:58:41;;;;;;;5.37;4.20;;;24.90;59.90;;;;;;10425221;28;20253;-81
2023/06/01 08:03:45;;;;;;;5.10;4.60;;;25.50;59.10;;;;;;10462712;28;20217;-81
2023/06/01 08:08:49;;;;;;;5.40;4.23;;;25.90;57.60;;;;;;10425042;28;20230;-81
2023/06/01 08:13:51;;;;;;;5.17;4.50;;;26.30;57.30;;;;;;10413649;28;20206;-84
2023/06/01 08:18:56;;;;;;;5.37;4.87;;;26.70;55.90;;;;;;10428363;28;20245;-84
2023/06/01 08:23:58;;;;;;;4.70;4.30;;;27.10;54.70;;;;;;10429935;28;20215;-84
2023/06/01 08:29:00;;;;;;;5.20;4.40;;;27.40;54.30;;;;;;10463830;28;20652;-81
2023/06/01 08:34:04;;;;;;;5.30;4.70;;;27.70;54.40;;;;;;10447835;28;20238;-82
2023/06/01 08:39:22;;;;;;;6.73;4.10;;;28.00;53.90;;;;;;10429689;28;20221;-83
2023/06/01 08:44:28;;;;;;;9.70;4.47;;;28.30;53.20;;;;;;10432094;28;20231;-84
2023/06/01 08:49:32;;;;;;;5.60;5.00;;;28.40;52.30;;;;;;10415089;28;20267;-84
2023/06/01 08:54:35;;;;;;;6.40;4.50;;;28.50;52.70;;;;;;10430375;28;20281;-84
2023/06/01 08:59:38;;;;;;;5.40;4.90;;;28.50;52.90;;;;;;10411770;28;20222;-83
2023/06/01 09:04:44;;;;;;;8.93;4.90;;;28.70;52.60;;;;;;10428229;28;20226;-84
2023/06/01 09:28:59;;;;;;;5.97;4.33;;;30.00;50.60;;;;;;10414056;28;20618;-82
2023/06/01 09:34:01;;;;;;;9.07;4.93;;;30.40;50.90;;;;;;10436640;28;20289;-82
2023/06/01 09:39:05;;;;;;;5.70;5.10;;;30.80;50.60;;;;;;10439402;28;20677;-82
2023/06/01 09:44:09;;;;;;;5.23;4.53;;;31.50;50.10;;;;;;10448608;28;20637;-83
2023/06/01 09:49:11;;;;;;;5.53;5.07;;;32.30;49.10;;;;;;10431651;28;20226;-82
2023/06/01 09:54:23;;;;;;;5.30;4.87;;;33.20;47.50;;;;;;10456346;28;20204;-82
2023/06/01 09:59:28;;;;;;;5.82;4.72;;;34.40;47.40;;;;;;10421055;28;20226;-82
2023/06/01 10:04:31;;;;;;;6.05;4.93;;;35.50;45.70;;;;;;10448985;28;20218;-82
2023/06/01 10:09:38;;;;;;;4.75;4.18;;;36.60;44.80;;;;;;10456091;28;20245;-83
2023/06/01 10:14:42;;;;;;;4.70;4.40;;;37.60;44.70;;;;;;10459521;28;20193;-83
2023/06/01 10:19:45;;;;;;;7.85;4.50;;;38.30;42.90;;;;;;10439909;28;20218;-81
2023/06/01 10:24:47;;;;;;;5.40;4.90;;;37.40;40.80;;;;;;10435686;28;20253;-81
2023/06/01 10:29:53;;;;;;;5.50;5.00;;;35.30;42.70;;;;;;10437912;28;20224;-82
2023/06/01 10:34:57;;;;;;;5.00;4.60;;;33.30;45.10;;;;;;10437088;28;20301;-81
2023/06/01 10:40:20;;;;;;;5.03;4.73;;;31.80;44.90;;;;;;10443427;28;20229;-80
2023/06/01 10:45:47;;;;;;;5.57;4.80;;;30.40;46.80;;;;;;10437376;28;20221;-80
2023/06/01 10:51:20;;;;;;;5.70;5.20;;;29.40;48.00;;;;;;10406204;28;20662;-80
2023/06/01 10:56:24;;;;;;;5.90;5.30;;;28.50;48.90;;;;;;10431115;28;20678;-80
2023/06/01 11:01:26;;;;;;;4.97;4.37;;;27.90;50.10;;;;;;10452314;28;20210;-80
2023/06/01 11:06:33;;;;;;;6.10;5.50;;;27.50;50.10;;;;;;10386825;28;20227;-81
2023/06/01 11:11:59;;;;;;;8.33;5.20;;;27.10;50.30;;;;;;10440034;28;20721;-80
2023/06/01 11:17:28;;;;;;;8.83;5.70;;;26.80;52.30;;;;;;10424780;28;20242;-80
2023/06/01 11:22:37;;;;;;;9.80;5.40;;;26.60;52.50;;;;;;10376337;28;20210;-80
2023/06/01 11:27:44;;;;;;;6.07;5.57;;;26.30;52.70;;;;;;10456015;28;20222;-81
2023/06/01 11:32:48;;;;;;;5.93;5.43;;;26.20;53.00;;;;;;10418849;28;20293;-80
2023/06/01 11:37:56;;;;;;;6.80;5.40;;;26.00;53.20;;;;;;10424225;28;20657;-80
2023/06/01 11:42:58;;;;;;;6.03;5.50;;;25.80;52.70;;;;;;10436297;28;20210;-80
2023/06/01 11:48:11;;;;;;;5.87;5.20;;;25.60;52.40;;;;;;10423400;28;20653;-80
2023/06/01 11:53:14;;;;;;;6.67;5.27;;;25.60;53.00;;;;;;10460091;28;20236;-81
2023/06/01 11:58:22;;;;;;;5.87;5.30;;;25.50;54.30;;;;;;10457889;28;20219;-80
2023/06/01 12:03:25;;;;;;;6.00;5.37;;;25.40;54.40;;;;;;10421702;28;20209;-80
2023/06/01 12:08:29;;;;;;;6.67;5.40;;;25.40;53.20;;;;;;10457443;28;20709;-80
2023/06/01 12:13:31;;;;;;;7.43;5.13;;;25.30;54.00;;;;;;10393257;28;20203;-80
2023/06/01 12:18:33;;;;;;;6.10;5.50;;;25.30;53.70;;;;;;10450268;28;20218;-81
2023/06/01 12:23:37;;;;;;;5.13;4.53;;;25.30;54.40;;;;;;10422094;28;20218;-81
2023/06/01 12:28:50;;;;;;;5.50;4.93;;;25.30;53.20;;;;;;10442131;28;20594;-81
2023/06/01 12:33:53;;;;;;;5.13;4.70;;;25.40;53.00;;;;;;10440859;28;20225;-81
2023/06/01 12:38:58;;;;;;;6.73;5.47;;;25.40;53.80;;;;;;10407815;28;20226;-81
2023/06/01 12:44:01;;;;;;;5.93;5.43;;;25.40;53.90;;;;;;10432262;28;20228;-81
2023/06/01 12:49:13;;;;;;;5.10;4.60;;;25.40;54.80;;;;;;10437557;28;20222;-81
2023/06/01 12:54:18;;;;;;;6.43;4.90;;;25.30;54.00;;;;;;10460986;28;20666;-81
2023/06/01 12:59:20;;;;;;;5.87;5.30;;;25.30;52.90;;;;;;10426749;28;20244;-81
2023/06/01 13:04:22;;;;;;;5.27;4.80;;;25.30;54.20;;;;;;10443429;28;20304;-81
2023/06/01 13:09:26;;;;;;;4.13;3.73;;;25.30;53.80;;;;;;10417115;28;20229;-81
2023/06/01 13:14:28;;;;;;;4.90;4.50;;;25.30;55.40;;;;;;10414857;28;20206;-83
2023/06/01 13:19:30;;;;;;;6.47;5.17;;;25.30;53.60;;;;;;10464621;28;20279;-82
2023/06/01 13:24:34;;;;;;;5.37;4.93;;;25.50;54.70;;;;;;10426966;28;20705;-82
2023/06/01 13:29:36;;;;;;;6.57;5.97;;;25.50;54.50;;;;;;10436049;28;20242;-80
2023/06/01 13:34:38;;;;;;;5.90;5.07;;;25.50;54.40;;;;;;10452529;28;20202;-81
2023/06/01 13:39:41;;;;;;;5.93;4.83;;;25.50;54.70;;;;;;10413939;28;20235;-82
2023/06/01 13:44:45;;;;;;;6.40;4.37;;;25.50;54.90;;;;;;10430151;28;20245;-82
2023/06/01 13:49:47;;;;;;;5.00;4.50;;;25.50;54.50;;;;;;10468315;28;20224;-82
2023/06/01 13:54:51;;;;;;;5.23;4.80;;;25.50;54.10;;;;;;10391836;28;20194;-80
2023/06/01 13:59:53;;;;;;;5.40;4.90;;;25.50;53.80;;;;;;10387395;28;20246;-81
2023/06/01 14:04:55;;;;;;;4.90;4.40;;;25.50;54.20;;;;;;10440364;28;20225;-81
2023/06/01 14:09:59;;;;;;;5.10;4.53;;;25.40;53.60;;;;;;10446113;28;20226;-81
2023/06/01 14:15:01;;;;;;;4.33;3.93;;;25.40;54.60;;;;;;10424710;28;20194;-81
2023/06/01 14:20:04;;;;;;;3.63;3.17;;;25.40;53.40;;;;;;10453982;28;20214;-81
2023/06/01 14:25:09;;;;;;;4.60;4.17;;;25.50;53.50;;;;;;10461492;28;20218;-81
2023/06/01 14:30:12;;;;;;;6.83;4.47;;;25.50;54.10;;;;;;10420826;28;20321;-80
2023/06/01 14:35:15;;;;;;;3.50;3.23;;;25.50;53.60;;;;;;10437960;28;20634;-81
2023/06/01 14:40:19;;;;;;;4.17;3.77;;;25.60;53.20;;;;;;10434463;28;20288;-81
2023/06/01 14:45:22;;;;;;;6.27;3.60;;;25.60;52.90;;;;;;10417032;28;20226;-80
2023/06/01 14:50:25;;;;;;;4.67;3.97;;;25.60;52.80;;;;;;10455159;28;20218;-80
2023/06/01 14:55:28;;;;;;;4.80;3.60;;;25.70;52.50;;;;;;10417552;28;20206;-81
2023/06/01 15:00:30;;;;;;;5.93;3.57;;;25.70;53.20;;;;;;10417825;28;20222;-80
2023/06/01 15:05:33;;;;;;;5.23;4.00;;;25.80;53.90;;;;;;10452469;28;20279;-82
2023/06/01 15:10:36;;;;;;;6.33;3.60;;;25.80;53.00;;;;;;10399756;28;20265;-81
2023/06/01 15:15:38;;;;;;;5.20;3.43;;;25.80;52.30;;;;;;10444287;28;20205;-80
2023/06/01 15:20:40;;;;;;;5.30;4.80;;;25.80;53.40;;;;;;10454018;28;20447;-81
2023/06/01 15:25:44;;;;;;;3.40;3.20;;;25.80;52.00;;;;;;10410361;28;20647;-80
2023/06/01 15:30:46;;;;;;;4.27;3.87;;;25.80;52.90;;;;;;10440973;22;20231;-85
2023/06/01 15:35:48;;;;;;;3.93;3.50;;;25.80;52.00;;;;;;10377535;28;20202;-85
2023/06/01 15:40:52;;;;;;;3.53;3.20;;;25.80;52.70;;;;;;10357579;28;20231;-85
2023/06/01 15:45:54;;;;;;;3.83;3.37;;;25.80;51.10;;;;;;10351795;28;20227;-85
2023/06/01 15:50:58;;;;;;;3.50;3.20;;;25.80;52.30;;;;;;10371900;28;20564;-86
2023/06/01 15:56:02;;;;;;;5.30;3.30;;;25.80;51.70;;;;;;10409500;28;20187;-86
2023/06/01 16:01:04;;;;;;;3.57;3.27;;;25.70;52.20;;;;;;10399796;28;20226;-85
2023/06/01 16:06:07;;;;;;;5.10;3.20;;;25.70;51.60;;;;;;10395888;28;20222;-86
2023/06/01 16:11:10;;;;;;;4.20;3.80;;;25.60;52.10;;;;;;10352948;28;20204;-86
2023/06/01 16:16:12;;;;;;;3.27;2.97;;;25.60;52.80;;;;;;10364866;28;20195;-86
2023/06/01 16:21:15;;;;;;;3.90;3.37;;;25.50;52.90;;;;;;10359069;28;20243;-86
2023/06/01 16:26:18;;;;;;;4.80;3.03;;;25.50;51.40;;;;;;10366781;28;20682;-86
2023/06/01 16:31:21;;;;;;;3.00;2.80;;;25.50;51.80;;;;;;10359276;28;20203;-86
2023/06/01 16:36:23;;;;;;;4.70;3.33;;;25.50;52.80;;;;;;10390326;28;20286;-86
2023/06/01 16:41:27;;;;;;;3.93;3.10;;;25.40;52.60;;;;;;10342902;28;20211;-86
2023/06/01 16:46:30;;;;;;;4.13;3.07;;;25.40;51.60;;;;;;10355129;28;20601;-85
2023/06/01 16:51:32;;;;;;;4.07;3.13;;;25.30;51.70;;;;;;10364421;28;20202;-85
2023/06/01 16:56:36;;;;;;;3.70;3.40;;;25.30;52.40;;;;;;10346879;28;20306;-86
2023/06/01 17:01:38;;;;;;;3.33;3.00;;;25.30;50.30;;;;;;10361121;28;20208;-86
2023/06/01 17:06:40;;;;;;;3.47;3.23;;;25.30;51.50;;;;;;10322643;28;20231;-86
2023/06/01 17:11:44;;;;;;;2.90;2.70;;;24.80;62.50;;;;;;10341817;28;20213;-86
2023/06/01 17:16:46;;;;;;;3.87;2.87;;;24.20;60.90;;;;;;10344577;28;20219;-86
2023/06/01 17:21:48;;;;;;;3.83;2.87;;;24.00;55.40;;;;;;10331246;28;20238;-84
2023/06/01 17:26:52;;;;;;;2.80;2.60;;;24.10;56.40;;;;;;10354159;28;20611;-84
2023/06/01 17:31:54;;;;;;;3.23;2.93;;;24.20;55.30;;;;;;10385268;28;20195;-84
2023/06/01 17:36:56;;;;;;;3.00;2.80;;;24.30;52.60;;;;;;10340424;28;20246;-84
2023/06/01 17:41:59;;;;;;;2.70;2.50;;;24.40;55.30;;;;;;10354930;28;20625;-86
2023/06/01 17:47:02;;;;;;;3.20;3.00;;;24.50;54.20;;;;;;10342409;28;20263;-86
2023/06/01 17:52:04;;;;;;;3.53;3.23;;;24.50;54.40;;;;;;10342541;28;20199;-86
2023/06/01 17:57:08;;;;;;;5.63;3.00;;;24.50;54.20;;;;;;10343173;28;20220;-85
2023/06/01 18:02:11;;;;;;;4.40;4.10;;;24.50;54.30;;;;;;10357738;28;20204;-86
2023/06/01 18:07:13;;;;;;;3.63;3.33;;;24.50;53.60;;;;;;10327059;28;20232;-87
2023/06/01 18:12:17;;;;;;;4.73;3.33;;;24.50;54.50;;;;;;10350661;28;20201;-86
2023/06/01 18:17:20;;;;;;;4.30;3.23;;;24.40;53.70;;;;;;10383493;28;20273;-85
2023/06/01 18:22:22;;;;;;;3.13;2.93;;;24.40;55.40;;;;;;10387865;28;20203;-85
2023/06/01 18:27:26;;;;;;;5.07;3.93;;;24.30;55.80;;;;;;10362186;28;20309;-85
2023/06/01 18:32:28;;;;;;;5.00;3.40;;;24.20;55.60;;;;;;10382865;28;20717;-85
2023/06/01 18:37:30;;;;;;;4.10;2.70;;;24.10;55.50;;;;;;10363046;28;20644;-85
2023/06/01 18:42:35;;;;;;;3.57;3.27;;;24.00;55.40;;;;;;10350119;28;20208;-85
2023/06/01 18:47:37;;;;;;;3.00;2.80;;;24.00;55.90;;;;;;10338666;28;20300;-85
2023/06/01 18:52:41;;;;;;;8.47;5.97;;;23.90;58.10;;;;;;10389975;28;20407;-86
2023/06/01 18:57:44;;;;;;;3.33;3.03;;;23.80;59.30;;;;;;10381300;28;20213;-86
2023/06/01 19:02:47;;;;;;;3.07;2.87;;;23.70;58.50;;;;;;10380470;28;20199;-86
2023/06/01 19:07:49;;;;;;;4.17;3.20;;;23.60;58.30;;;;;;10371745;28;20227;-86
2023/06/01 19:12:53;;;;;;;3.67;2.77;;;23.60;58.60;;;;;;10394101;28;20658;-86
2023/06/01 19:17:55;;;;;;;3.87;3.57;;;23.50;58.90;;;;;;10371422;28;20227;-86
2023/06/01 19:22:58;;;;;;;3.07;2.83;;;23.40;59.00;;;;;;10370053;28;20218;-84
2023/06/01 19:28:01;;;;;;;3.57;3.27;;;23.20;59.70;;;;;;10376069;28;20250;-85
2023/06/01 19:33:03;;;;;;;3.27;2.93;;;23.20;59.50;;;;;;10363360;28;20234;-85
2023/06/01 19:38:06;;;;;;;3.47;3.27;;;22.90;60.00;;;;;;10393026;28;20210;-85
2023/06/01 19:43:31;;;;;;;3.27;2.97;;;22.80;59.90;;;;;;10387498;28;20256;-85
2023/06/01 19:48:33;;;;;;;3.67;3.40;;;22.80;60.10;;;;;;10366358;28;20647;-86
2023/06/01 19:53:36;;;;;;;4.00;3.50;;;22.60;61.00;;;;;;10392427;28;20218;-84
2023/06/01 19:58:42;;;;;;;3.43;3.13;;;22.50;62.20;;;;;;10439550;28;20218;-85
2023/06/01 20:03:44;;;;;;;4.00;3.60;;;22.40;62.40;;;;;;10402994;28;20203;-84
2023/06/01 20:08:46;;;;;;;3.53;3.23;;;22.30;62.80;;;;;;10384722;28;20215;-85
2023/06/01 20:13:50;;;;;;;4.17;3.60;;;22.30;63.00;;;;;;10384296;28;20207;-85
2023/06/01 20:18:54;;;;;;;4.13;3.73;;;22.20;63.20;;;;;;10354828;28;20229;-84
2023/06/01 20:23:57;;;;;;;4.43;4.13;;;22.10;64.00;;;;;;10371392;28;20283;-86
2023/06/01 20:29:00;;;;;;;3.17;2.97;;;22.00;65.10;;;;;;10353969;28;20438;-85
2023/06/01 20:34:07;;;;;;;5.80;3.80;;;22.00;65.30;;;;;;10370509;28;20616;-86
2023/06/01 20:39:09;;;;;;;5.30;3.90;;;21.90;65.70;;;;;;10355855;28;20638;-85
2023/06/01 20:44:17;;;;;;;4.70;4.30;;;21.90;66.70;;;;;;10354124;28;20207;-85
2023/06/01 20:49:23;;;;;;;4.03;3.70;;;21.90;66.50;;;;;;10354936;28;20232;-85
2023/06/01 20:54:28;;;;;;;4.30;4.00;;;21.80;67.00;;;;;;10351936;28;20755;-85
2023/06/01 20:59:32;;;;;;;3.90;3.60;;;21.70;67.10;;;;;;10342400;28;20726;-86
2023/06/01 21:04:37;;;;;;;4.30;4.00;;;21.70;66.90;;;;;;10383378;28;20195;-85
2023/06/01 21:09:39;;;;;;;4.37;3.57;;;21.70;67.40;;;;;;10375769;28;20218;-85
2023/06/01 21:14:43;;;;;;;3.30;3.10;;;21.70;67.30;;;;;;10362623;28;20202;-85
2023/06/01 21:19:45;;;;;;;4.33;4.03;;;21.60;67.70;;;;;;10376468;28;20695;-85
2023/06/01 21:24:50;;;;;;;4.60;4.20;;;21.60;67.10;;;;;;10378381;28;20199;-85
2023/06/01 21:29:54;;;;;;;3.90;3.57;;;21.50;67.10;;;;;;10386306;23;20306;-82
2023/06/01 21:34:56;;;;;;;3.93;3.63;;;21.50;67.60;;;;;;10356309;28;20660;-82
2023/06/01 21:39:59;;;;;;;4.20;3.80;;;21.40;68.00;;;;;;10368903;28;20219;-81
2023/06/01 21:45:02;;;;;;;4.23;3.60;;;21.30;68.10;;;;;;10374394;28;20217;-81
2023/06/01 21:50:06;;;;;;;3.90;3.30;;;21.30;68.10;;;;;;10362085;28;20226;-81
2023/06/01 21:55:08;;;;;;;3.77;3.50;;;21.10;68.60;;;;;;10373860;28;20603;-82
2023/06/01 22:00:15;;;;;;;3.80;3.50;;;21.10;68.90;;;;;;10361955;28;20238;-81
2023/06/01 22:05:17;;;;;;;4.23;3.83;;;21.00;69.20;;;;;;10364184;28;20207;-84
2023/06/01 22:10:20;;;;;;;10.63;3.57;;;20.90;70.20;;;;;;10377878;28;20297;-81
2023/06/01 22:15:23;;;;;;;6.73;3.87;;;20.90;69.90;;;;;;10368014;28;20199;-82
2023/06/01 22:20:26;;;;;;;5.13;3.97;;;20.80;68.50;;;;;;10347899;28;20316;-82
2023/06/01 22:25:29;;;;;;;3.77;3.53;;;20.80;68.50;;;;;;10341912;28;20219;-84
2023/06/01 22:30:32;;;;;;;3.80;3.33;;;20.80;68.90;;;;;;10358388;28;20267;-82
2023/06/01 22:35:35;;;;;;;3.87;3.57;;;20.70;68.40;;;;;;10352861;28;20274;-83
2023/06/01 22:40:37;;;;;;;3.67;3.30;;;20.70;68.50;;;;;;10344356;28;20229;-82
2023/06/01 22:45:41;;;;;;;4.00;3.70;;;20.70;69.70;;;;;;10344087;28;20222;-81
2023/06/01 22:50:44;;;;;;;4.43;3.93;;;20.60;69.80;;;;;;10382640;28;20231;-81
2023/06/01 22:55:47;;;;;;;4.17;3.87;;;20.50;69.00;;;;;;10348877;28;20207;-82
2023/06/01 23:28:01;;;;;;;5.90;4.00;;;20.00;70.20;;;;;;10341701;28;20238;-81
2023/06/01 23:33:04;;;;;;;4.20;3.90;;;19.90;70.30;;;;;;10379046;28;20199;-81
2023/06/01 23:38:10;;;;;;;3.90;3.60;;;19.80;69.60;;;;;;10352942;28;20219;-83
2023/06/01 23:43:14;;;;;;;4.07;3.73;;;19.70;69.60;;;;;;10367812;28;20191;-81
2023/06/01 23:48:16;;;;;;;4.60;4.10;;;19.60;69.90;;;;;;10341220;28;20226;-81
2023/06/01 23:53:19;;;;;;;4.60;4.20;;;19.60;69.90;;;;;;10378395;28;20202;-80
2023/06/01 23:58:22;;;;;;;4.20;3.80;;;19.50;69.40;;;;;;10341820;28;20222;-81
